Time,TemperatureF,DewpointF,PressureIn,WindDirection,WindDirectionDegrees,WindSpeedMPH,WindSpeedGustMPH,Humidity,HourlyPrecipIn,Conditions,Clouds,dailyrainin,SoftwareType,DateUTC
2013-02-19 00:00:00,24.5,9.8,30.23,WSW,246,0.0,8.0,53,0.00,,,0.01,Wunderground v.1.15,2013-02-19 05:00:00,
2013-02-19 00:05:00,24.5,9.8,30.23,West,263,1.0,8.0,53,0.00,,,0.00,Wunderground v.1.15,2013-02-19 05:05:00,
2013-02-19 00:10:00,24.5,9.4,30.23,WNW,293,1.0,1.0,52,0.00,,,0.00,Wunderground v.1.15,2013-02-19 05:10:00,
2013-02-19 00:15:00,24.6,9.5,30.23,NW,310,1.0,8.0,52,0.00,,,0.00,Wunderground v.1.15,2013-02-19 05:15:00,
2013-02-19 00:20:00,24.7,9.5,30.23,NW,321,0.0,8.0,52,0.00,,,0.00,Wunderground v.1.15,2013-02-19 05:20:00,
2013-02-19 00:30:00,24.6,9.9,30.23,NW,306,0.0,8.0,53,0.00,,,0.00,Wunderground v.1.15,2013-02-19 05:30:00,
2013-02-19 00:35:00,24.7,9.5,30.22,WNW,292,0.0,8.0,52,0.00,,,0.00,Wunderground v.1.15,2013-02-19 05:35:00,
2013-02-19 00:40:00,24.8,9.2,30.22,NNW,336,0.0,8.0,51,0.00,,,0.00,Wunderground v.1.15,2013-02-19 05:40:00,
2013-02-19 00:45:00,24.8,10.9,30.22,NNW,329,1.0,8.0,55,0.00,,,0.00,Wunderground v.1.15,2013-02-19 05:45:00,
2013-02-19 00:50:00,24.8,10.9,30.22,NW,317,1.0,1.0,55,0.00,,,0.00,Wunderground v.1.15,2013-02-19 05:50:00,
2013-02-19 00:55:00,24.9,11.0,30.22,West,281,1.0,8.0,55,0.00,,,0.00,Wunderground v.1.15,2013-02-19 05:55:00,
2013-02-19 01:05:00,25.4,9.3,30.21,WNW,296,0.0,8.0,50,0.00,,,0.00,Wunderground v.1.15,2013-02-19 06:05:00,
2013-02-19 01:15:00,25.6,10.0,30.21,WNW,296,0.0,8.0,51,0.00,,,0.00,Wunderground v.1.15,2013-02-19 06:15:00,
2013-02-19 01:20:00,25.5,10.7,30.20,WNW,296,0.0,8.0,53,0.00,,,0.00,Wunderground v.1.15,2013-02-19 06:20:00,
2013-02-19 01:25:00,25.4,11.0,30.20,WNW,296,0.0,8.0,54,0.00,,,0.00,Wunderground v.1.15,2013-02-19 06:25:00,
2013-02-19 01:30:00,25.3,10.1,30.20,WNW,296,0.0,8.0,52,0.00,,,0.00,Wunderground v.1.15,2013-02-19 06:30:00,
2013-02-19 01:40:00,25.6,10.8,30.20,WNW,296,0.0,8.0,53,0.00,,,0.00,Wunderground v.1.15,2013-02-19 06:40:00,
2013-02-19 01:50:00,26.0,10.8,30.19,NW,306,0.0,8.0,52,0.00,,,0.00,Wunderground v.1.15,2013-02-19 06:50:00,
2013-02-19 01:55:00,26.1,11.3,30.20,NW,306,0.0,8.0,53,0.00,,,0.00,Wunderground v.1.15,2013-02-19 06:55:00,
2013-02-19 02:00:00,26.1,10.9,30.19,NW,306,0.0,8.0,52,0.00,,,0.00,Wunderground v.1.15,2013-02-19 07:00:00,
2013-02-19 02:05:00,26.1,10.9,30.19,NW,306,0.0,8.0,52,0.00,,,0.00,Wunderground v.1.15,2013-02-19 07:05:00,
2013-02-19 02:10:00,26.1,10.9,30.19,NW,306,0.0,8.0,52,0.00,,,0.00,Wunderground v.1.15,2013-02-19 07:10:00,
2013-02-19 02:15:00,26.1,10.9,30.19,NW,306,0.0,8.0,52,0.00,,,0.00,Wunderground v.1.15,2013-02-19 07:15:00,
2013-02-19 02:20:00,26.1,10.9,30.18,NW,306,0.0,8.0,52,0.00,,,0.00,Wunderground v.1.15,2013-02-19 07:20:00,
2013-02-19 02:25:00,26.1,11.7,30.18,NW,306,0.0,8.0,54,0.00,,,0.00,Wunderground v.1.15,2013-02-19 07:25:00,
2013-02-19 02:35:00,25.9,12.7,30.17,NW,306,0.0,8.0,57,0.00,,,0.00,Wunderground v.1.15,2013-02-19 07:35:00,
2013-02-19 02:40:00,25.9,13.1,30.18,NW,306,0.0,8.0,58,0.00,,,0.00,Wunderground v.1.15,2013-02-19 07:40:00,
2013-02-19 02:45:00,25.9,12.7,30.18,NW,306,0.0,8.0,57,0.00,,,0.00,Wunderground v.1.15,2013-02-19 07:45:00,
2013-02-19 02:50:00,26.0,12.4,30.17,WNW,300,0.0,8.0,56,0.00,,,0.00,Wunderground v.1.15,2013-02-19 07:50:00,
2013-02-19 02:55:00,26.2,12.2,30.17,SW,225,1.0,8.0,55,0.00,,,0.00,Wunderground v.1.15,2013-02-19 07:55:00,
2013-02-19 03:00:00,26.3,13.1,30.17,SW,225,1.0,1.0,57,0.00,,,0.00,Wunderground v.1.15,2013-02-19 08:00:00,
2013-02-19 03:05:00,26.3,13.1,30.17,SW,225,0.0,8.0,57,0.00,,,0.00,Wunderground v.1.15,2013-02-19 08:05:00,
2013-02-19 03:15:00,26.5,12.9,30.17,SW,217,1.0,8.0,56,0.00,,,0.00,Wunderground v.1.15,2013-02-19 08:15:00,
2013-02-19 03:20:00,26.6,13.8,30.17,WSW,247,1.0,1.0,58,0.00,,,0.00,Wunderground v.1.15,2013-02-19 08:20:00,
2013-02-19 03:30:00,27.0,13.4,30.16,WSW,242,1.0,8.0,56,0.00,,,0.00,Wunderground v.1.15,2013-02-19 08:30:00,
2013-02-19 03:35:00,27.1,13.5,30.16,SW,231,2.0,8.0,56,0.00,,,0.00,Wunderground v.1.15,2013-02-19 08:35:00,
2013-02-19 03:45:00,27.0,13.4,30.16,West,277,2.0,8.0,56,0.00,,,0.00,Wunderground v.1.15,2013-02-19 08:45:00,
2013-02-19 03:50:00,26.9,13.3,30.16,West,277,1.0,1.0,56,0.00,,,0.00,Wunderground v.1.15,2013-02-19 08:50:00,
2013-02-19 03:55:00,26.8,13.2,30.16,West,277,0.0,8.0,56,0.00,,,0.00,Wunderground v.1.15,2013-02-19 08:55:00,
2013-02-19 04:00:00,26.7,12.7,30.16,West,277,0.0,8.0,55,0.00,,,0.00,Wunderground v.1.15,2013-02-19 09:00:00,
2013-02-19 04:05:00,26.7,12.7,30.16,West,277,0.0,8.0,55,0.00,,,0.00,Wunderground v.1.15,2013-02-19 09:05:00,
2013-02-19 04:10:00,26.6,13.0,30.16,West,277,0.0,8.0,56,0.00,,,0.00,Wunderground v.1.15,2013-02-19 09:10:00,
2013-02-19 04:20:00,26.6,12.6,30.16,West,275,0.0,8.0,55,0.00,,,0.00,Wunderground v.1.15,2013-02-19 09:20:00,
2013-02-19 04:25:00,26.5,12.5,30.16,West,275,0.0,8.0,55,0.00,,,0.00,Wunderground v.1.15,2013-02-19 09:25:00,
2013-02-19 04:30:00,26.4,12.8,30.16,West,275,0.0,8.0,56,0.00,,,0.00,Wunderground v.1.15,2013-02-19 09:30:00,
2013-02-19 04:35:00,26.3,12.7,30.16,West,275,0.0,8.0,56,0.00,,,0.00,Wunderground v.1.15,2013-02-19 09:35:00,
2013-02-19 04:40:00,26.2,12.6,30.16,West,275,0.0,8.0,56,0.00,,,0.00,Wunderground v.1.15,2013-02-19 09:40:00,
2013-02-19 04:45:00,26.1,12.5,30.16,West,275,0.0,8.0,56,0.00,,,0.00,Wunderground v.1.15,2013-02-19 09:45:00,
2013-02-19 04:50:00,26.1,12.5,30.15,West,275,0.0,8.0,56,0.00,,,0.00,Wunderground v.1.15,2013-02-19 09:50:00,
2013-02-19 04:55:00,26.1,12.9,30.15,West,259,1.0,8.0,57,0.00,,,0.00,Wunderground v.1.15,2013-02-19 09:55:00,
2013-02-19 05:05:00,26.0,12.8,30.14,SW,228,1.0,8.0,57,0.00,,,0.00,Wunderground v.1.15,2013-02-19 10:05:00,
2013-02-19 05:10:00,26.1,12.5,30.14,SW,236,1.0,1.0,56,0.00,,,0.00,Wunderground v.1.15,2013-02-19 10:10:00,
2013-02-19 05:15:00,26.2,12.6,30.14,SW,236,0.0,8.0,56,0.00,,,0.00,Wunderground v.1.15,2013-02-19 10:15:00,
2013-02-19 05:20:00,26.3,13.1,30.14,SW,236,0.0,8.0,57,0.00,,,0.00,Wunderground v.1.15,2013-02-19 10:20:00,
2013-02-19 05:25:00,26.2,12.6,30.13,SW,236,0.0,8.0,56,0.00,,,0.00,Wunderground v.1.15,2013-02-19 10:25:00,
2013-02-19 05:30:00,26.2,13.4,30.13,SW,236,0.0,8.0,58,0.00,,,0.00,Wunderground v.1.15,2013-02-19 10:30:00,
2013-02-19 05:40:00,25.9,12.7,30.13,SW,236,0.0,8.0,57,0.00,,,0.00,Wunderground v.1.15,2013-02-19 10:40:00,
2013-02-19 05:45:00,25.6,13.2,30.12,SW,236,0.0,8.0,59,0.00,,,0.00,Wunderground v.1.15,2013-02-19 10:45:00,
2013-02-19 05:50:00,25.2,12.9,30.12,SW,236,0.0,8.0,59,0.00,,,0.00,Wunderground v.1.15,2013-02-19 10:50:00,
2013-02-19 05:55:00,25.0,12.7,30.11,SW,236,0.0,8.0,59,0.00,,,0.00,Wunderground v.1.15,2013-02-19 10:55:00,
2013-02-19 06:00:00,24.9,13.0,30.11,SW,236,0.0,8.0,60,0.00,,,0.00,Wunderground v.1.15,2013-02-19 11:00:00,
2013-02-19 06:05:00,25.2,12.9,30.11,NW,304,0.0,8.0,59,0.00,,,0.00,Wunderground v.1.15,2013-02-19 11:05:00,
2013-02-19 06:10:00,25.6,12.9,30.11,WNW,284,1.0,8.0,58,0.00,,,0.00,Wunderground v.1.15,2013-02-19 11:10:00,
2013-02-19 06:15:00,25.7,12.9,30.11,West,263,1.0,8.0,58,0.00,,,0.00,Wunderground v.1.15,2013-02-19 11:15:00,
2013-02-19 06:20:00,25.8,13.4,30.11,West,273,1.0,8.0,59,0.00,,,0.00,Wunderground v.1.15,2013-02-19 11:20:00,
2013-02-19 06:25:00,26.2,13.8,30.11,West,273,2.0,8.0,59,0.00,,,0.00,Wunderground v.1.15,2013-02-19 11:25:00,
2013-02-19 06:35:00,26.4,14.0,30.10,West,277,1.0,8.0,59,0.00,,,0.00,Wunderground v.1.15,2013-02-19 11:35:00,
2013-02-19 06:40:00,26.3,13.9,30.10,West,264,1.0,1.0,59,0.00,,,0.00,Wunderground v.1.15,2013-02-19 11:40:00,
2013-02-19 06:45:00,26.3,14.3,30.10,WNW,292,1.0,2.0,60,0.00,,,0.00,Wunderground v.1.15,2013-02-19 11:45:00,
2013-02-19 06:50:00,26.3,13.9,30.09,West,280,1.0,8.0,59,0.00,,,0.00,Wunderground v.1.15,2013-02-19 11:50:00,
2013-02-19 06:55:00,26.3,13.9,30.09,West,279,1.0,8.0,59,0.00,,,0.00,Wunderground v.1.15,2013-02-19 11:55:00,
2013-02-19 07:00:00,26.4,14.4,30.09,WNW,287,0.0,8.0,60,0.00,,,0.00,Wunderground v.1.15,2013-02-19 12:00:00,
2013-02-19 07:05:00,26.4,14.4,30.09,WNW,287,0.0,8.0,60,0.00,,,0.00,Wunderground v.1.15,2013-02-19 12:05:00,
2013-02-19 07:15:00,26.6,14.9,30.09,West,259,0.0,8.0,61,0.00,,,0.00,Wunderground v.1.15,2013-02-19 12:15:00,
2013-02-19 07:20:00,27.0,14.9,30.09,West,259,0.0,8.0,60,0.00,,,0.00,Wunderground v.1.15,2013-02-19 12:20:00,
2013-02-19 07:30:00,27.2,14.4,30.09,SSW,211,1.0,8.0,58,0.00,,,0.00,Wunderground v.1.15,2013-02-19 12:30:00,
2013-02-19 07:35:00,27.2,14.8,30.08,SSW,211,1.0,8.0,59,0.00,,,0.00,Wunderground v.1.15,2013-02-19 12:35:00,
2013-02-19 07:40:00,27.2,14.8,30.08,SSW,211,1.0,1.0,59,0.00,,,0.00,Wunderground v.1.15,2013-02-19 12:40:00,
2013-02-19 07:45:00,27.4,14.9,30.08,SSW,211,0.0,8.0,59,0.00,,,0.00,Wunderground v.1.15,2013-02-19 12:45:00,
2013-02-19 07:50:00,27.7,15.2,30.09,SW,216,1.0,8.0,59,0.00,,,0.00,Wunderground v.1.15,2013-02-19 12:50:00,
2013-02-19 08:00:00,28.0,15.9,30.08,SW,216,1.0,8.0,60,0.00,,,0.00,Wunderground v.1.15,2013-02-19 13:00:00,
2013-02-19 08:05:00,28.2,16.1,30.08,SSW,199,2.0,8.0,60,0.00,,,0.00,Wunderground v.1.15,2013-02-19 13:05:00,
2013-02-19 08:10:00,28.3,16.6,30.08,SSW,202,2.0,8.0,61,0.00,,,0.00,Wunderground v.1.15,2013-02-19 13:10:00,
2013-02-19 08:15:00,28.3,16.6,30.08,SW,220,2.0,8.0,61,0.00,,,0.00,Wunderground v.1.15,2013-02-19 13:15:00,
2013-02-19 08:20:00,28.4,16.7,30.08,SW,225,2.0,8.0,61,0.00,,,0.00,Wunderground v.1.15,2013-02-19 13:20:00,
2013-02-19 08:25:00,28.9,17.5,30.08,SW,222,2.0,8.0,62,0.00,,,0.00,Wunderground v.1.15,2013-02-19 13:25:00,
2013-02-19 08:30:00,29.5,17.7,30.08,WSW,240,2.0,8.0,61,0.00,,,0.00,Wunderground v.1.15,2013-02-19 13:30:00,
2013-02-19 08:35:00,29.8,18.0,30.08,SW,225,3.0,8.0,61,0.00,,,0.00,Wunderground v.1.15,2013-02-19 13:35:00,
2013-02-19 08:45:00,30.5,18.6,30.07,SW,231,3.0,8.0,61,0.00,,,0.00,Wunderground v.1.15,2013-02-19 13:45:00,
2013-02-19 08:50:00,31.0,18.7,30.07,SSW,205,3.0,8.0,60,0.00,,,0.00,Wunderground v.1.15,2013-02-19 13:50:00,
2013-02-19 08:55:00,31.2,18.9,30.07,SSW,194,3.0,8.0,60,0.00,,,0.00,Wunderground v.1.15,2013-02-19 13:55:00,
2013-02-19 09:00:00,31.6,19.3,30.07,WNW,293,4.0,8.0,60,0.00,,,0.00,Wunderground v.1.15,2013-02-19 14:00:00,
2013-02-19 09:05:00,31.8,19.9,30.06,WSW,252,3.0,8.0,61,0.00,,,0.00,Wunderground v.1.15,2013-02-19 14:05:00,
2013-02-19 09:10:00,32.0,19.7,30.06,WSW,248,3.0,8.0,60,0.00,,,0.00,Wunderground v.1.15,2013-02-19 14:10:00,
2013-02-19 09:15:00,32.2,20.2,30.05,SW,216,3.0,8.0,61,0.00,,,0.00,Wunderground v.1.15,2013-02-19 14:15:00,
2013-02-19 09:25:00,32.2,20.2,30.04,SSW,208,4.0,8.0,61,0.00,,,0.00,Wunderground v.1.15,2013-02-19 14:25:00,
2013-02-19 09:30:00,32.0,20.1,30.05,SSW,201,4.0,8.0,61,0.00,,,0.00,Wunderground v.1.15,2013-02-19 14:30:00,
2013-02-19 09:35:00,32.0,20.4,30.05,SSW,210,3.0,8.0,62,0.00,,,0.00,Wunderground v.1.15,2013-02-19 14:35:00,
2013-02-19 09:40:00,31.9,20.3,30.05,WSW,238,3.0,3.0,62,0.00,,,0.00,Wunderground v.1.15,2013-02-19 14:40:00,
2013-02-19 09:45:00,32.2,21.0,30.05,SW,221,3.0,6.0,63,0.00,,,0.00,Wunderground v.1.15,2013-02-19 14:45:00,
2013-02-19 09:50:00,32.7,21.5,30.05,WSW,246,4.0,8.0,63,0.00,,,0.00,Wunderground v.1.15,2013-02-19 14:50:00,
2013-02-19 09:55:00,33.0,21.4,30.04,SSW,213,4.0,8.0,62,0.00,,,0.00,Wunderground v.1.15,2013-02-19 14:55:00,
2013-02-19 10:05:00,33.5,21.9,30.04,SW,229,3.0,8.0,62,0.00,,,0.00,Wunderground v.1.15,2013-02-19 15:05:00,
2013-02-19 10:10:00,34.1,22.0,30.03,WSW,252,4.0,8.0,61,0.00,,,0.00,Wunderground v.1.15,2013-02-19 15:10:00,
2013-02-19 10:15:00,34.2,22.5,30.02,SSW,211,5.0,8.0,62,0.00,,,0.00,Wunderground v.1.15,2013-02-19 15:15:00,
2013-02-19 10:20:00,34.3,22.6,30.02,SSW,193,5.0,8.0,62,0.00,,,0.00,Wunderground v.1.15,2013-02-19 15:20:00,
2013-02-19 10:25:00,34.4,23.1,30.02,SSW,195,5.0,8.0,63,0.00,,,0.00,Wunderground v.1.15,2013-02-19 15:25:00,
2013-02-19 10:30:00,34.6,23.3,30.02,SSW,212,6.0,8.0,63,0.00,,,0.00,Wunderground v.1.15,2013-02-19 15:30:00,
2013-02-19 10:35:00,35.1,23.4,30.02,SW,236,5.0,8.0,62,0.00,,,0.00,Wunderground v.1.15,2013-02-19 15:35:00,
2013-02-19 10:40:00,35.2,23.1,30.01,SSW,205,4.0,8.0,61,0.00,,,0.00,Wunderground v.1.15,2013-02-19 15:40:00,
2013-02-19 10:45:00,35.3,23.2,30.01,NW,319,5.0,8.0,61,0.00,,,0.00,Wunderground v.1.15,2013-02-19 15:45:00,
2013-02-19 10:55:00,36.6,24.0,30.00,SW,215,4.0,5.0,60,0.00,,,0.00,Wunderground v.1.15,2013-02-19 15:55:00,
2013-02-19 11:00:00,36.8,24.2,30.00,WSW,242,5.0,8.0,60,0.00,,,0.00,Wunderground v.1.15,2013-02-19 16:00:00,
2013-02-19 11:05:00,37.0,24.8,29.99,SW,223,5.0,8.0,61,0.00,,,0.00,Wunderground v.1.15,2013-02-19 16:05:00,
2013-02-19 11:10:00,37.0,24.8,29.99,SSW,210,5.0,5.0,61,0.00,,,0.00,Wunderground v.1.15,2013-02-19 16:10:00,
2013-02-19 11:15:00,36.9,24.7,29.99,SW,216,6.0,6.0,61,0.00,,,0.00,Wunderground v.1.15,2013-02-19 16:15:00,
2013-02-19 11:20:00,37.0,25.6,29.98,SW,226,5.0,5.0,63,0.00,,,0.00,Wunderground v.1.15,2013-02-19 16:20:00,
2013-02-19 11:25:00,37.2,25.0,29.98,WSW,244,5.0,8.0,61,0.00,,,0.00,Wunderground v.1.15,2013-02-19 16:25:00,
2013-02-19 11:30:00,37.3,25.5,29.98,SW,221,6.0,8.0,62,0.00,,,0.00,Wunderground v.1.15,2013-02-19 16:30:00,
2013-02-19 11:40:00,37.0,25.9,29.98,SSW,207,7.0,8.0,64,0.00,,,0.00,Wunderground v.1.15,2013-02-19 16:40:00,
2013-02-19 11:45:00,37.0,25.9,29.97,SW,230,6.0,8.0,64,0.00,,,0.00,Wunderground v.1.15,2013-02-19 16:45:00,
2013-02-19 11:50:00,37.3,26.2,29.98,SSW,200,6.0,8.0,64,0.00,,,0.00,Wunderground v.1.15,2013-02-19 16:50:00,
2013-02-19 11:55:00,37.5,26.4,29.97,SW,221,7.0,8.0,64,0.00,,,0.00,Wunderground v.1.15,2013-02-19 16:55:00,
2013-02-19 12:00:00,37.8,26.7,29.97,SW,223,7.0,7.0,64,0.00,,,0.00,Wunderground v.1.15,2013-02-19 17:00:00,
2013-02-19 12:05:00,38.0,26.9,29.96,SSW,202,6.0,8.0,64,0.00,,,0.00,Wunderground v.1.15,2013-02-19 17:05:00,
2013-02-19 12:10:00,38.1,27.0,29.96,SW,221,7.0,7.0,64,0.00,,,0.00,Wunderground v.1.15,2013-02-19 17:10:00,
2013-02-19 12:15:00,38.4,27.7,29.95,SSW,205,6.0,8.0,65,0.00,,,0.00,Wunderground v.1.15,2013-02-19 17:15:00,
2013-02-19 12:20:00,38.5,28.1,29.95,SW,219,6.0,6.0,66,0.00,,,0.00,Wunderground v.1.15,2013-02-19 17:20:00,
2013-02-19 12:30:00,38.6,28.2,29.94,WSW,250,6.0,6.0,66,0.00,,,0.00,Wunderground v.1.15,2013-02-19 17:30:00,
2013-02-19 12:35:00,38.9,28.5,29.94,SW,235,5.0,11.0,66,0.00,,,0.00,Wunderground v.1.15,2013-02-19 17:35:00,
2013-02-19 12:40:00,39.0,29.0,29.93,NW,308,6.0,8.0,67,0.00,,,0.00,Wunderground v.1.15,2013-02-19 17:40:00,
2013-02-19 12:45:00,39.4,28.6,29.93,NW,321,6.0,8.0,65,0.00,,,0.00,Wunderground v.1.15,2013-02-19 17:45:00,
2013-02-19 12:50:00,39.5,28.7,29.92,WSW,244,5.0,8.0,65,0.00,,,0.00,Wunderground v.1.15,2013-02-19 17:50:00,
2013-02-19 12:55:00,39.6,28.8,29.92,WSW,242,5.0,8.0,65,0.00,,,0.00,Wunderground v.1.15,2013-02-19 17:55:00,
2013-02-19 13:05:00,39.6,29.2,29.91,WSW,243,5.0,8.0,66,0.00,,,0.00,Wunderground v.1.15,2013-02-19 18:05:00,
2013-02-19 13:10:00,39.7,28.9,29.90,West,280,5.0,5.0,65,0.00,,,0.00,Wunderground v.1.15,2013-02-19 18:10:00,
2013-02-19 13:20:00,39.8,29.0,29.89,SW,234,5.0,8.0,65,0.00,,,0.00,Wunderground v.1.15,2013-02-19 18:20:00,
2013-02-19 13:25:00,39.9,29.5,29.89,NW,310,5.0,8.0,66,0.00,,,0.00,Wunderground v.1.15,2013-02-19 18:25:00,
2013-02-19 13:30:00,40.0,29.6,29.89,WSW,250,5.0,5.0,66,0.00,,,0.00,Wunderground v.1.15,2013-02-19 18:30:00,
2013-02-19 13:35:00,40.1,30.0,29.89,WSW,242,4.0,8.0,67,0.00,,,0.00,Wunderground v.1.15,2013-02-19 18:35:00,
2013-02-19 13:40:00,40.1,30.0,29.89,WSW,248,4.0,8.0,67,0.00,,,0.00,Wunderground v.1.15,2013-02-19 18:40:00,
2013-02-19 13:45:00,40.2,30.5,29.89,SW,232,6.0,8.0,68,0.00,,,0.00,Wunderground v.1.15,2013-02-19 18:45:00,
2013-02-19 13:50:00,40.2,30.8,29.88,NW,313,8.0,8.0,69,0.00,,,0.00,Wunderground v.1.15,2013-02-19 18:50:00,
2013-02-19 13:55:00,40.0,31.0,29.88,West,263,7.0,8.0,70,0.00,,,0.00,Wunderground v.1.15,2013-02-19 18:55:00,
2013-02-19 14:05:00,38.8,32.8,29.88,WSW,248,8.0,17.0,79,0.00,,,0.00,Wunderground v.1.15,2013-02-19 19:05:00,
2013-02-19 14:10:00,38.4,33.4,29.87,SW,236,9.0,9.0,82,0.00,,,0.00,Wunderground v.1.15,2013-02-19 19:10:00,
2013-02-19 14:15:00,38.0,33.3,29.87,WSW,246,8.0,9.0,83,0.00,,,0.00,Wunderground v.1.15,2013-02-19 19:15:00,
2013-02-19 14:20:00,37.7,33.6,29.86,NW,304,7.0,7.0,85,0.00,,,0.00,Wunderground v.1.15,2013-02-19 19:20:00,
2013-02-19 14:25:00,37.4,33.6,29.86,West,264,6.0,8.0,86,0.00,,,0.00,Wunderground v.1.15,2013-02-19 19:25:00,
2013-02-19 14:30:00,37.3,33.8,29.86,SW,234,7.0,8.0,87,0.00,,,0.01,Wunderground v.1.15,2013-02-19 19:30:00,
2013-02-19 14:35:00,36.9,34.0,29.86,SW,225,6.0,8.0,89,0.08,,,0.02,Wunderground v.1.15,2013-02-19 19:35:00,
2013-02-19 14:45:00,36.5,34.1,29.85,WNW,301,5.0,8.0,91,0.05,,,0.02,Wunderground v.1.15,2013-02-19 19:45:00,
2013-02-19 14:50:00,36.4,34.3,29.84,WSW,251,5.0,5.0,92,0.05,,,0.03,Wunderground v.1.15,2013-02-19 19:50:00,
2013-02-19 14:55:00,36.3,34.2,29.84,SW,223,5.0,8.0,92,0.05,,,0.03,Wunderground v.1.15,2013-02-19 19:55:00,
2013-02-19 15:00:00,36.3,34.5,29.84,SW,233,5.0,5.0,93,0.04,,,0.03,Wunderground v.1.15,2013-02-19 20:00:00,
2013-02-19 15:05:00,36.3,34.5,29.84,WSW,244,7.0,10.0,93,0.00,,,0.03,Wunderground v.1.15,2013-02-19 20:05:00,
2013-02-19 15:10:00,36.3,34.5,29.83,WSW,255,7.0,7.0,93,0.00,,,0.03,Wunderground v.1.15,2013-02-19 20:10:00,
2013-02-19 15:15:00,36.2,34.6,29.83,SW,225,6.0,8.0,94,0.00,,,0.03,Wunderground v.1.15,2013-02-19 20:15:00,
2013-02-19 15:20:00,36.2,34.6,29.83,WSW,255,5.0,5.0,94,0.00,,,0.03,Wunderground v.1.15,2013-02-19 20:20:00,
2013-02-19 15:25:00,36.2,34.6,29.83,SW,234,5.0,6.0,94,0.00,,,0.03,Wunderground v.1.15,2013-02-19 20:25:00,
2013-02-19 15:30:00,36.3,34.7,29.82,WSW,242,5.0,8.0,94,0.00,,,0.03,Wunderground v.1.15,2013-02-19 20:30:00,
2013-02-19 15:40:00,36.3,35.0,29.81,West,266,5.0,5.0,95,0.00,,,0.04,Wunderground v.1.15,2013-02-19 20:40:00,
2013-02-19 15:45:00,36.3,35.0,29.81,WSW,252,5.0,8.0,95,0.00,,,0.04,Wunderground v.1.15,2013-02-19 20:45:00,
2013-02-19 15:50:00,36.4,35.1,29.81,SW,234,5.0,8.0,95,0.00,,,0.04,Wunderground v.1.15,2013-02-19 20:50:00,
2013-02-19 15:55:00,36.2,34.9,29.81,SW,228,5.0,8.0,95,0.00,,,0.04,Wunderground v.1.15,2013-02-19 20:55:00,
2013-02-19 16:00:00,36.2,35.2,29.80,WSW,240,5.0,5.0,96,0.00,,,0.04,Wunderground v.1.15,2013-02-19 21:00:00,
2013-02-19 16:05:00,36.3,35.3,29.80,WNW,300,4.0,8.0,96,0.00,,,0.05,Wunderground v.1.15,2013-02-19 21:05:00,
2013-02-19 16:15:00,36.3,35.3,29.79,SW,227,4.0,6.0,96,0.00,,,0.05,Wunderground v.1.15,2013-02-19 21:15:00,
2013-02-19 16:20:00,36.5,35.7,29.79,SW,226,4.0,8.0,97,0.05,,,0.06,Wunderground v.1.15,2013-02-19 21:20:00,
2013-02-19 16:25:00,36.6,35.8,29.78,WSW,244,5.0,8.0,97,0.05,,,0.06,Wunderground v.1.15,2013-02-19 21:25:00,
2013-02-19 16:30:00,36.6,35.8,29.77,SSW,211,4.0,4.0,97,0.05,,,0.07,Wunderground v.1.15,2013-02-19 21:30:00,
2013-02-19 16:35:00,36.7,35.9,29.77,SW,228,4.0,7.0,97,0.05,,,0.07,Wunderground v.1.15,2013-02-19 21:35:00,
2013-02-19 16:40:00,36.7,35.9,29.77,WSW,255,4.0,4.0,97,0.05,,,0.07,Wunderground v.1.15,2013-02-19 21:40:00,
2013-02-19 16:45:00,36.7,35.9,29.77,West,278,3.0,8.0,97,0.00,,,0.07,Wunderground v.1.15,2013-02-19 21:45:00,
2013-02-19 16:50:00,36.8,36.0,29.76,SW,232,2.0,2.0,97,0.00,,,0.08,Wunderground v.1.15,2013-02-19 21:50:00,
2013-02-19 17:00:00,37.0,36.2,29.76,WNW,282,2.0,2.0,97,0.00,,,0.08,Wunderground v.1.15,2013-02-19 22:00:00,
2013-02-19 17:05:00,37.1,36.3,29.75,West,281,2.0,8.0,97,0.00,,,0.08,Wunderground v.1.15,2013-02-19 22:05:00,
2013-02-19 17:15:00,37.1,36.6,29.75,WSW,256,2.0,8.0,98,0.00,,,0.08,Wunderground v.1.15,2013-02-19 22:15:00,
2013-02-19 17:20:00,37.0,36.2,29.75,WSW,254,1.0,1.0,97,0.00,,,0.08,Wunderground v.1.15,2013-02-19 22:20:00,
2013-02-19 17:25:00,36.9,36.4,29.75,WSW,254,0.0,8.0,98,0.00,,,0.09,Wunderground v.1.15,2013-02-19 22:25:00,
2013-02-19 17:30:00,37.0,36.5,29.75,WNW,283,1.0,8.0,98,0.00,,,0.09,Wunderground v.1.15,2013-02-19 22:30:00,
2013-02-19 17:35:00,37.1,36.6,29.75,SSW,198,2.0,8.0,98,0.00,,,0.09,Wunderground v.1.15,2013-02-19 22:35:00,
2013-02-19 17:40:00,37.2,36.7,29.74,WSW,242,3.0,8.0,98,0.04,,,0.10,Wunderground v.1.15,2013-02-19 22:40:00,
2013-02-19 17:45:00,37.4,36.9,29.74,SW,234,2.0,8.0,98,0.04,,,0.10,Wunderground v.1.15,2013-02-19 22:45:00,
2013-02-19 17:50:00,37.4,36.9,29.74,WNW,293,1.0,1.0,98,0.04,,,0.10,Wunderground v.1.15,2013-02-19 22:50:00,
2013-02-19 17:55:00,37.5,37.0,29.74,West,266,1.0,8.0,98,0.04,,,0.11,Wunderground v.1.15,2013-02-19 22:55:00,
2013-02-19 18:00:00,37.5,37.0,29.74,NW,304,1.0,8.0,98,0.04,,,0.11,Wunderground v.1.15,2013-02-19 23:00:00,
2013-02-19 18:10:00,37.7,37.2,29.74,West,265,3.0,3.0,98,0.08,,,0.13,Wunderground v.1.15,2013-02-19 23:10:00,
2013-02-19 18:15:00,37.7,37.2,29.74,SW,236,2.0,8.0,98,0.08,,,0.13,Wunderground v.1.15,2013-02-19 23:15:00,
2013-02-19 18:25:00,37.8,37.3,29.73,West,273,3.0,8.0,98,0.04,,,0.14,Wunderground v.1.15,2013-02-19 23:25:00,
2013-02-19 18:30:00,37.8,37.3,29.73,West,277,3.0,3.0,98,0.04,,,0.14,Wunderground v.1.15,2013-02-19 23:30:00,
2013-02-19 18:35:00,37.9,37.4,29.73,West,277,3.0,8.0,98,0.04,,,0.14,Wunderground v.1.15,2013-02-19 23:35:00,
2013-02-19 18:40:00,37.9,37.4,29.73,West,266,3.0,3.0,98,0.04,,,0.14,Wunderground v.1.15,2013-02-19 23:40:00,
2013-02-19 18:45:00,38.0,37.5,29.72,WNW,291,3.0,4.0,98,0.00,,,0.14,Wunderground v.1.15,2013-02-19 23:45:00,
2013-02-19 18:50:00,38.0,37.5,29.72,West,275,3.0,3.0,98,0.00,,,0.15,Wunderground v.1.15,2013-02-19 23:50:00,
2013-02-19 18:55:00,37.9,37.4,29.71,NW,311,2.0,8.0,98,0.00,,,0.15,Wunderground v.1.15,2013-02-19 23:55:00,
2013-02-19 19:05:00,38.0,37.5,29.71,WNW,296,2.0,8.0,98,0.04,,,0.16,Wunderground v.1.15,2013-02-20 00:05:00,
2013-02-19 19:10:00,38.0,37.5,29.71,SW,231,3.0,8.0,98,0.04,,,0.16,Wunderground v.1.15,2013-02-20 00:10:00,
2013-02-19 19:15:00,38.1,37.6,29.71,WNW,292,3.0,8.0,98,0.04,,,0.16,Wunderground v.1.15,2013-02-20 00:15:00,
2013-02-19 19:20:00,38.1,37.6,29.71,WSW,238,2.0,2.0,98,0.04,,,0.16,Wunderground v.1.15,2013-02-20 00:20:00,
2013-02-19 19:25:00,38.1,37.6,29.70,West,279,2.0,8.0,98,0.00,,,0.16,Wunderground v.1.15,2013-02-20 00:25:00,
2013-02-19 19:30:00,38.1,37.6,29.69,WNW,296,2.0,2.0,98,0.00,,,0.17,Wunderground v.1.15,2013-02-20 00:30:00,
2013-02-19 19:40:00,38.1,37.3,29.70,West,259,2.0,8.0,97,0.00,,,0.17,Wunderground v.1.15,2013-02-20 00:40:00,
2013-02-19 19:45:00,38.0,37.2,29.70,West,263,2.0,8.0,97,0.00,,,0.17,Wunderground v.1.15,2013-02-20 00:45:00,
2013-02-19 19:50:00,38.1,37.3,29.69,SW,221,1.0,8.0,97,0.00,,,0.17,Wunderground v.1.15,2013-02-20 00:50:00,
2013-02-19 19:55:00,38.0,37.2,29.69,WNW,290,1.0,8.0,97,0.00,,,0.17,Wunderground v.1.15,2013-02-20 00:55:00,
2013-02-19 20:00:00,38.0,37.2,29.68,West,277,1.0,1.0,97,0.00,,,0.18,Wunderground v.1.15,2013-02-20 01:00:00,
2013-02-19 20:05:00,37.9,37.1,29.68,West,277,0.0,8.0,97,0.00,,,0.18,Wunderground v.1.15,2013-02-20 01:05:00,
2013-02-19 20:10:00,37.9,37.1,29.68,WNW,287,0.0,8.0,97,0.00,,,0.18,Wunderground v.1.15,2013-02-20 01:10:00,
2013-02-19 20:15:00,37.8,37.0,29.69,WNW,287,0.0,8.0,97,0.00,,,0.18,Wunderground v.1.15,2013-02-20 01:15:00,
2013-02-19 20:25:00,37.8,37.3,29.68,WNW,287,2.0,8.0,98,0.00,,,0.18,Wunderground v.1.15,2013-02-20 01:25:00,
2013-02-19 20:30:00,37.8,37.0,29.68,WNW,284,1.0,8.0,97,0.00,,,0.18,Wunderground v.1.15,2013-02-20 01:30:00,
2013-02-19 20:35:00,37.8,37.0,29.68,NW,311,2.0,8.0,97,0.00,,,0.18,Wunderground v.1.15,2013-02-20 01:35:00,
2013-02-19 20:45:00,37.8,37.0,29.67,NNW,332,2.0,8.0,97,0.00,,,0.18,Wunderground v.1.15,2013-02-20 01:45:00,
2013-02-19 20:50:00,37.7,36.9,29.68,WNW,301,2.0,8.0,97,0.00,,,0.19,Wunderground v.1.15,2013-02-20 01:50:00,
2013-02-19 20:55:00,37.6,36.8,29.68,NNE,22,2.0,8.0,97,0.00,,,0.19,Wunderground v.1.15,2013-02-20 01:55:00,
2013-02-19 21:00:00,37.5,36.7,29.68,NW,309,2.0,8.0,97,0.00,,,0.19,Wunderground v.1.15,2013-02-20 02:00:00,
2013-02-19 21:10:00,37.1,36.3,29.69,West,275,1.0,8.0,97,0.04,,,0.20,Wunderground v.1.15,2013-02-20 02:10:00,
2013-02-19 21:15:00,36.9,35.9,29.68,NW,315,1.0,8.0,96,0.04,,,0.20,Wunderground v.1.15,2013-02-20 02:15:00,
2013-02-19 21:20:00,36.8,35.8,29.69,WNW,291,2.0,8.0,96,0.00,,,0.20,Wunderground v.1.15,2013-02-20 02:20:00,
2013-02-19 21:25:00,36.7,35.7,29.68,NW,304,3.0,8.0,96,0.00,,,0.20,Wunderground v.1.15,2013-02-20 02:25:00,
2013-02-19 21:30:00,36.6,35.8,29.68,West,265,2.0,8.0,97,0.00,,,0.20,Wunderground v.1.15,2013-02-20 02:30:00,
2013-02-19 21:35:00,36.5,35.7,29.68,WNW,300,2.0,8.0,97,0.00,,,0.20,Wunderground v.1.15,2013-02-20 02:35:00,
2013-02-19 21:40:00,36.5,35.7,29.68,West,276,2.0,2.0,97,0.00,,,0.20,Wunderground v.1.15,2013-02-20 02:40:00,
2013-02-19 21:50:00,36.4,35.6,29.67,NW,309,1.0,1.0,97,0.00,,,0.20,Wunderground v.1.15,2013-02-20 02:50:00,
2013-02-19 22:00:00,36.2,35.2,29.67,WNW,294,1.0,8.0,96,0.00,,,0.20,Wunderground v.1.15,2013-02-20 03:00:00,
2013-02-19 22:05:00,36.0,35.0,29.67,NW,323,1.0,8.0,96,0.00,,,0.20,Wunderground v.1.15,2013-02-20 03:05:00,
2013-02-19 22:10:00,35.9,34.9,29.66,NW,317,1.0,1.0,96,0.00,,,0.20,Wunderground v.1.15,2013-02-20 03:10:00,
2013-02-19 22:15:00,35.8,34.8,29.67,NW,315,1.0,8.0,96,0.00,,,0.20,Wunderground v.1.15,2013-02-20 03:15:00,
2013-02-19 22:20:00,35.7,34.7,29.66,WNW,286,1.0,8.0,96,0.00,,,0.20,Wunderground v.1.15,2013-02-20 03:20:00,
2013-02-19 22:25:00,35.6,34.6,29.66,SW,217,1.0,8.0,96,0.00,,,0.20,Wunderground v.1.15,2013-02-20 03:25:00,
2013-02-19 22:30:00,35.5,34.5,29.66,NW,304,1.0,1.0,96,0.00,,,0.20,Wunderground v.1.15,2013-02-20 03:30:00,
2013-02-19 22:40:00,35.3,34.3,29.65,NNE,13,1.0,8.0,96,0.00,,,0.21,Wunderground v.1.15,2013-02-20 03:40:00,
2013-02-19 22:45:00,35.3,34.3,29.64,NNE,22,1.0,8.0,96,0.00,,,0.21,Wunderground v.1.15,2013-02-20 03:45:00,
2013-02-19 22:50:00,35.2,33.9,29.65,NNE,18,2.0,2.0,95,0.00,,,0.21,Wunderground v.1.15,2013-02-20 03:50:00,
2013-02-19 22:55:00,35.2,33.9,29.65,WNW,291,1.0,8.0,95,0.00,,,0.21,Wunderground v.1.15,2013-02-20 03:55:00,
2013-02-19 23:00:00,35.2,33.9,29.65,NW,308,1.0,8.0,95,0.00,,,0.21,Wunderground v.1.15,2013-02-20 04:00:00,
2013-02-19 23:05:00,35.1,33.8,29.65,WNW,298,2.0,8.0,95,0.00,,,0.21,Wunderground v.1.15,2013-02-20 04:05:00,
2013-02-19 23:10:00,35.1,33.8,29.65,West,277,2.0,8.0,95,0.00,,,0.21,Wunderground v.1.15,2013-02-20 04:10:00,
2013-02-19 23:15:00,35.1,33.5,29.65,WNW,300,2.0,8.0,94,0.00,,,0.21,Wunderground v.1.15,2013-02-20 04:15:00,
2013-02-19 23:25:00,35.1,33.5,29.65,NW,315,2.0,8.0,94,0.00,,,0.21,Wunderground v.1.15,2013-02-20 04:25:00,
2013-02-19 23:35:00,35.0,33.4,29.65,West,275,1.0,8.0,94,0.00,,,0.21,Wunderground v.1.15,2013-02-20 04:35:00,
2013-02-19 23:40:00,34.9,33.3,29.65,WNW,288,2.0,2.0,94,0.00,,,0.21,Wunderground v.1.15,2013-02-20 04:40:00,
2013-02-19 23:45:00,34.7,33.2,29.65,NW,323,1.0,8.0,94,0.00,,,0.21,Wunderground v.1.15,2013-02-20 04:45:00,
2013-02-19 23:50:00,34.6,32.8,29.64,NNW,331,1.0,8.0,93,0.00,,,0.21,Wunderground v.1.15,2013-02-20 04:50:00,
2013-02-19 23:55:00,34.6,32.8,29.65,WNW,288,2.0,8.0,93,0.00,,,0.21,Wunderground v.1.15,2013-02-20 04:55:00,